Time;durP1;ratioP1;P1;durP2;ratioP2;P2;SDS_P1;SDS_P2;PMS_P1;PMS_P2;Temp;Humidity;BMP_temperature;BMP_pressure;BME280_temperature;BME280_humidity;BME280_pressure;Samples;Min_cycle;Max_cycle;Signal;HPM_P1;HPM_P2
2023/09/01 00:00:04;;;;;;;13.30;10.70;;;;;;;19.45;71.39;99134.79;107081;1257;73852;-40
2023/09/01 00:02:32;;;;;;;10.90;9.80;;;;;;;19.45;71.30;99139.83;107112;1257;66790;-40
2023/09/01 00:05:06;;;;;;;11.40;10.00;;;;;;;19.45;71.18;99145.16;107065;1259;71055;-40
2023/09/01 00:07:34;;;;;;;10.70;9.70;;;;;;;19.42;71.20;99149.98;107105;1257;60567;-40
2023/09/01 00:10:03;;;;;;;13.60;10.60;;;;;;;19.39;71.26;99151.70;107119;1257;60222;-39
2023/09/01 00:12:31;;;;;;;11.30;10.20;;;;;;;19.34;71.30;99157.21;107073;1257;72957;-40
2023/09/01 00:14:59;;;;;;;12.30;10.80;;;;;;;19.31;71.35;99156.41;107077;1257;67563;-40
2023/09/01 00:17:26;;;;;;;12.40;10.10;;;;;;;19.30;71.28;99160.44;107079;1257;71078;-40
2023/09/01 00:19:54;;;;;;;11.30;9.90;;;;;;;19.30;71.41;99159.26;107080;1257;60330;-40
2023/09/01 00:22:22;;;;;;;12.20;10.90;;;;;;;19.27;71.58;99161.50;107105;1257;60530;-40
2023/09/01 00:24:49;;;;;;;14.80;10.60;;;;;;;19.23;71.72;99163.39;107090;1257;72619;-40
2023/09/01 00:27:17;;;;;;;15.80;11.40;;;;;;;19.19;71.64;99165.28;107082;1257;67053;-40
2023/09/01 00:29:44;;;;;;;14.30;11.40;;;;;;;19.13;71.66;99170.18;107051;1257;72686;-40
2023/09/01 00:32:12;;;;;;;11.00;9.70;;;;;;;19.11;71.67;99174.08;107032;1260;60968;-40
2023/09/01 00:34:39;;;;;;;12.40;10.50;;;;;;;19.10;71.67;99173.23;107092;1257;60357;-40
2023/09/01 00:37:07;;;;;;;13.90;10.50;;;;;;;19.08;71.83;99175.23;107048;1257;73880;-40
2023/09/01 00:39:35;;;;;;;11.70;10.10;;;;;;;19.04;71.93;99169.65;107080;1257;67569;-40
2023/09/01 00:42:03;;;;;;;12.30;11.10;;;;;;;18.98;72.31;99167.16;107054;1257;72734;-40
2023/09/01 00:44:30;;;;;;;11.80;10.50;;;;;;;18.96;72.55;99173.57;107072;1257;61729;-40
2023/09/01 00:46:58;;;;;;;11.70;9.20;;;;;;;18.98;72.43;99173.77;107042;1257;60312;-39
2023/09/01 00:49:25;;;;;;;10.80;9.60;;;;;;;19.00;72.35;99177.17;107044;1258;73864;-40
2023/09/01 00:51:53;;;;;;;13.20;10.90;;;;;;;18.97;72.24;99172.59;107048;1257;67082;-40
2023/09/01 00:54:21;;;;;;;12.10;10.90;;;;;;;18.90;72.35;99168.09;107038;1258;72700;-40
2023/09/01 00:56:49;;;;;;;13.30;10.90;;;;;;;18.83;72.45;99163.98;106979;1264;60607;-40
2023/09/01 00:59:16;;;;;;;16.00;10.40;;;;;;;18.78;72.83;99162.20;107035;1258;60406;-40
2023/09/01 01:01:44;;;;;;;10.60;9.30;;;;;;;18.80;72.82;99160.74;106918;1257;73847;-41
2023/09/01 01:04:12;;;;;;;10.50;9.40;;;;;;;18.83;72.90;99168.30;107092;1257;67704;-40
2023/09/01 01:06:52;;;;;;;11.10;9.90;;;;;;;18.82;73.06;99171.08;107024;1264;71423;-40
2023/09/01 01:09:50;;;;;;;12.20;10.60;;;;;;;18.79;73.08;99176.52;107071;1257;59879;-40
2023/09/01 01:12:26;;;;;;;13.00;11.50;;;;;;;18.78;73.13;99178.75;106980;1257;59253;-40
2023/09/01 01:14:54;;;;;;;11.90;9.50;;;;;;;18.78;73.11;99180.64;107077;1257;73821;-40
2023/09/01 01:17:22;;;;;;;11.80;9.20;;;;;;;18.83;72.66;99188.00;106863;1257;67946;-40
2023/09/01 01:20:19;;;;;;;11.60;9.40;;;;;;;18.86;72.62;99190.77;107025;1257;71823;-40
2023/09/01 01:22:48;;;;;;;11.20;9.90;;;;;;;18.88;72.56;99193.97;107060;1257;60460;-40
2023/09/01 01:25:16;;;;;;;11.40;10.00;;;;;;;18.86;72.60;99193.35;107124;1263;60450;-40
2023/09/01 01:27:43;;;;;;;16.00;10.30;;;;;;;18.85;72.75;99193.54;107066;1257;73864;-41
2023/09/01 01:30:15;;;;;;;11.00;9.80;;;;;;;18.83;72.70;99193.52;107054;1257;67904;-40
2023/09/01 01:32:43;;;;;;;13.40;9.60;;;;;;;18.83;72.73;99189.48;107065;1258;72722;-38
2023/09/01 01:35:24;;;;;;;10.80;9.80;;;;;;;18.84;72.70;99188.98;107065;1260;61708;-38
2023/09/01 01:38:07;;;;;;;12.90;9.30;;;;;;;18.84;72.68;99189.23;107088;1257;60559;-40
2023/09/01 01:40:35;;;;;;;11.00;9.60;;;;;;;18.83;72.80;99190.36;107073;1257;73851;-40
2023/09/01 01:43:03;;;;;;;12.60;9.80;;;;;;;18.80;72.85;99196.60;106901;1257;67544;-39
2023/09/01 01:45:31;;;;;;;10.40;9.30;;;;;;;18.73;73.03;99194.99;107010;1258;72761;-39
2023/09/01 01:47:58;;;;;;;10.20;9.10;;;;;;;18.68;73.07;99188.64;107016;1260;61660;-39
2023/09/01 01:50:26;;;;;;;10.00;8.60;;;;;;;18.72;73.21;99185.91;106913;1257;60455;-39
2023/09/01 01:52:54;;;;;;;10.90;9.80;;;;;;;18.74;73.26;99182.98;107046;1257;73862;-40
2023/09/01 01:55:21;;;;;;;10.90;9.80;;;;;;;18.72;73.37;99180.90;107074;1257;67974;-40
2023/09/01 01:57:49;;;;;;;11.80;9.80;;;;;;;18.66;73.48;99170.15;107071;1257;72720;-40
2023/09/01 02:00:18;;;;;;;11.30;9.00;;;;;;;18.69;73.36;99177.25;107034;1257;60238;-40
2023/09/01 02:02:46;;;;;;;;;;;;;;;18.67;73.30;99180.98;107095;1257;60447;-40
2023/09/01 02:05:14;;;;;;;11.60;9.10;;;;;;;18.68;73.39;99180.65;107040;1257;73824;-40
2023/09/01 02:07:42;;;;;;;10.10;8.90;;;;;;;18.71;73.49;99183.81;107055;1257;65926;-40
2023/09/01 02:10:09;;;;;;;10.20;8.80;;;;;;;18.68;73.61;99191.08;107060;1262;71600;-39
2023/09/01 02:12:37;;;;;;;12.70;9.60;;;;;;;18.64;73.70;99189.78;107058;1258;61101;-39
2023/09/01 02:15:08;;;;;;;12.80;8.40;;;;;;;18.63;73.74;99190.69;107021;1257;60424;-39
2023/09/01 02:17:37;;;;;;;10.00;8.80;;;;;;;18.65;73.75;99195.05;107037;1257;72567;-40
2023/09/01 02:20:17;;;;;;;10.60;8.70;;;;;;;18.68;73.61;99196.50;107084;1257;67695;-40
2023/09/01 02:22:47;;;;;;;9.80;8.80;;;;;;;18.68;73.65;99200.34;107088;1259;71387;-40
2023/09/01 02:25:15;;;;;;;14.10;8.90;;;;;;;18.64;73.59;99206.98;107047;1257;60795;-40
2023/09/01 02:27:43;;;;;;;11.90;9.70;;;;;;;18.60;73.64;99207.98;107023;1257;60453;-40
2023/09/01 02:30:12;;;;;;;9.80;8.90;;;;;;;18.55;73.75;99204.92;107052;1257;72594;-40
2023/09/01 02:32:40;;;;;;;9.70;8.40;;;;;;;18.57;73.83;99205.45;107123;1262;66321;-40
2023/09/01 02:35:09;;;;;;;9.00;8.20;;;;;;;18.63;73.70;99209.98;107073;1257;72658;-40
2023/09/01 02:37:36;;;;;;;9.70;8.70;;;;;;;18.65;73.71;99214.81;107101;1259;60553;-40
2023/09/01 02:40:10;;;;;;;9.50;8.40;;;;;;;18.63;73.72;99216.89;107075;1257;59340;-40
2023/09/01 02:42:39;;;;;;;10.10;9.00;;;;;;;18.62;73.65;99214.56;107075;1257;73902;-40
2023/09/01 02:45:10;;;;;;;10.70;8.60;;;;;;;18.61;73.82;99217.31;107072;1257;67917;-40
2023/09/01 02:47:37;;;;;;;8.50;7.50;;;;;;;18.63;73.63;99220.80;107097;1258;71855;-40
2023/09/01 02:50:05;;;;;;;9.60;8.60;;;;;;;18.67;73.56;99219.34;107048;1262;60571;-40
2023/09/01 02:52:33;;;;;;;10.20;8.80;;;;;;;18.68;73.58;99220.11;107175;1257;59730;-40
2023/09/01 02:55:01;;;;;;;10.80;9.00;;;;;;;18.65;73.82;99228.46;107117;1257;73897;-40
2023/09/01 02:57:28;;;;;;;10.50;9.20;;;;;;;18.63;73.77;99232.27;107081;1258;67627;-40
2023/09/01 02:59:56;;;;;;;9.60;8.60;;;;;;;18.58;73.69;99232.89;107074;1257;71317;-40
2023/09/01 03:02:24;;;;;;;8.50;7.70;;;;;;;18.56;73.85;99235.82;107011;1257;61751;-40
2023/09/01 03:04:53;;;;;;;8.90;7.90;;;;;;;18.57;73.94;99236.67;107049;1257;60386;-40
2023/09/01 03:07:21;;;;;;;9.60;8.10;;;;;;;18.57;74.08;99243.17;107045;1257;73841;-40
2023/09/01 03:09:48;;;;;;;10.10;9.00;;;;;;;18.52;74.09;99238.30;107028;1257;66339;-40
2023/09/01 03:12:16;;;;;;;10.20;9.10;;;;;;;18.42;74.43;99242.99;107067;1257;72720;-40
2023/09/01 03:14:44;;;;;;;9.70;8.80;;;;;;;18.29;74.78;99251.41;107016;1264;62219;-43
2023/09/01 03:17:12;;;;;;;9.70;8.30;;;;;;;18.19;75.20;99249.90;107052;1257;59980;-39
2023/09/01 03:19:39;;;;;;;11.60;8.10;;;;;;;18.13;75.50;99247.16;107021;1257;73879;-39
2023/09/01 03:22:07;;;;;;;9.70;8.70;;;;;;;18.07;75.90;99247.02;107032;1257;67671;-39
2023/09/01 03:24:34;;;;;;;9.20;8.30;;;;;;;17.99;76.47;99248.44;107068;1260;71371;-40
2023/09/01 03:27:02;;;;;;;12.20;9.20;;;;;;;17.94;77.00;99247.10;107030;1264;60588;-40
2023/09/01 03:29:30;;;;;;;9.70;8.70;;;;;;;17.92;77.04;99247.59;107019;1262;59346;-40
2023/09/01 03:31:57;;;;;;;12.90;8.80;;;;;;;17.93;77.18;99251.89;107050;1257;73893;-40
2023/09/01 03:34:25;;;;;;;10.20;8.30;;;;;;;17.96;77.17;99257.89;107065;1258;67981;-40
2023/09/01 03:36:53;;;;;;;13.20;8.80;;;;;;;17.96;77.21;99260.92;107019;1260;71499;-40
2023/09/01 03:39:21;;;;;;;10.10;8.90;;;;;;;17.94;77.33;99259.33;107045;1266;60331;-39
2023/09/01 03:41:48;;;;;;;10.60;9.40;;;;;;;17.92;77.63;99260.59;107052;1262;60148;-39
2023/09/01 03:44:17;;;;;;;9.60;8.50;;;;;;;17.94;77.60;99260.02;107054;1257;72677;-39
2023/09/01 03:46:45;;;;;;;10.00;8.20;;;;;;;18.05;77.57;99259.42;107064;1262;67705;-39
2023/09/01 03:49:13;;;;;;;10.60;8.80;;;;;;;18.15;77.38;99263.35;107078;1261;71427;-40
2023/09/01 03:51:41;;;;;;;11.10;9.30;;;;;;;18.20;77.21;99260.25;107116;1257;60417;-40
2023/09/01 03:54:09;;;;;;;10.40;8.70;;;;;;;18.24;77.16;99257.20;107040;1257;60479;-40
2023/09/01 03:56:37;;;;;;;11.20;8.90;;;;;;;18.29;77.05;99256.66;107059;1257;73905;-40
2023/09/01 03:59:04;;;;;;;11.70;8.60;;;;;;;18.35;76.74;99254.53;107052;1257;67898;-39
2023/09/01 04:01:32;;;;;;;9.80;8.80;;;;;;;18.44;76.59;99251.91;107025;1257;71964;-40
2023/09/01 04:04:01;;;;;;;12.60;9.30;;;;;;;18.47;76.48;99253.96;107037;1257;60970;-41
2023/09/01 04:06:29;;;;;;;11.20;10.10;;;;;;;18.50;76.22;99254.31;107031;1258;60498;-40
2023/09/01 04:08:57;;;;;;;10.60;9.00;;;;;;;18.53;76.03;99251.95;107035;1257;73889;-40
2023/09/01 04:11:24;;;;;;;9.50;8.50;;;;;;;18.57;75.80;99250.23;107006;1263;66789;-40
2023/09/01 04:13:52;;;;;;;9.80;8.80;;;;;;;18.62;75.55;99248.37;107183;1262;71787;-40
2023/09/01 04:16:20;;;;;;;11.40;9.40;;;;;;;18.61;75.46;99242.26;107278;1259;60488;-40
2023/09/01 04:18:47;;;;;;;10.40;9.30;;;;;;;18.59;75.71;99242.20;107258;1262;60369;-40
2023/09/01 04:21:15;;;;;;;12.90;9.50;;;;;;;18.59;75.81;99238.14;107208;1257;72743;-40
2023/09/01 04:23:43;;;;;;;10.70;9.30;;;;;;;18.62;75.59;99238.79;107046;1263;67611;-40
2023/09/01 04:26:12;;;;;;;10.10;9.10;;;;;;;18.66;75.46;99241.16;106992;1263;71376;-40
2023/09/01 04:28:39;;;;;;;11.00;9.30;;;;;;;18.65;75.52;99239.84;107083;1257;60403;-40
2023/09/01 04:31:24;;;;;;;10.40;9.30;;;;;;;18.63;75.76;99241.23;107039;1263;60443;-40
2023/09/01 04:33:52;;;;;;;10.50;9.50;;;;;;;18.63;75.98;99244.66;107219;1257;72711;-40
2023/09/01 04:36:20;;;;;;;11.20;9.30;;;;;;;18.66;75.64;99246.34;107228;1262;66290;-40
2023/09/01 04:38:53;;;;;;;10.50;9.40;;;;;;;18.71;75.71;99246.97;107075;1257;70833;-40
2023/09/01 04:41:22;;;;;;;10.70;9.60;;;;;;;18.69;75.71;99249.90;107216;1262;60239;-41
2023/09/01 04:43:50;;;;;;;12.20;10.10;;;;;;;18.65;75.78;99255.54;107226;1257;60425;-41
2023/09/01 04:46:17;;;;;;;10.80;9.50;;;;;;;18.60;76.03;99256.63;107053;1256;73860;-38
2023/09/01 04:48:45;;;;;;;10.30;9.00;;;;;;;18.57;76.15;99259.10;107206;1257;67605;-40
2023/09/01 04:51:13;;;;;;;11.30;9.50;;;;;;;18.59;76.41;99257.58;107224;1258;72701;-40
2023/09/01 04:53:41;;;;;;;10.90;9.70;;;;;;;18.61;76.52;99260.06;107056;1257;60450;-40
2023/09/01 04:56:09;;;;;;;11.60;10.20;;;;;;;18.62;76.79;99259.35;107091;1257;60555;-40
2023/09/01 04:58:36;;;;;;;10.60;9.50;;;;;;;18.64;76.86;99262.14;107053;1257;73927;-40
2023/09/01 05:01:05;;;;;;;12.10;9.30;;;;;;;18.67;76.96;99264.13;107208;1257;66816;-40
2023/09/01 05:03:32;;;;;;;10.50;9.40;;;;;;;18.70;77.06;99264.16;107034;1257;72738;-40
2023/09/01 05:06:00;;;;;;;10.50;9.40;;;;;;;18.74;77.32;99266.07;107021;1263;60456;-40
2023/09/01 05:08:28;;;;;;;11.90;10.70;;;;;;;18.75;77.43;99271.23;107212;1261;60428;-40
2023/09/01 05:10:55;;;;;;;12.60;10.50;;;;;;;18.72;77.54;99274.19;107031;1263;73948;-40
2023/09/01 05:13:23;;;;;;;11.70;10.00;;;;;;;18.72;77.62;99269.55;107182;1262;66304;-40
2023/09/01 05:15:51;;;;;;;11.30;9.80;;;;;;;18.79;77.82;99271.01;107010;1260;71367;-40
2023/09/01 05:18:18;;;;;;;12.10;10.00;;;;;;;18.85;77.78;99273.66;107209;1256;59657;-38
2023/09/01 05:20:48;;;;;;;;;;;;;;;18.84;78.07;99275.23;107041;1263;60444;-40
2023/09/01 05:23:16;;;;;;;11.30;10.10;;;;;;;18.80;78.40;99273.51;107157;1257;73292;-39
2023/09/01 05:25:44;;;;;;;11.30;9.90;;;;;;;18.90;78.21;99289.13;107272;1257;67634;-40
2023/09/01 05:28:11;;;;;;;11.50;9.70;;;;;;;18.94;78.25;99293.05;107030;1260;72673;-40
2023/09/01 05:30:39;;;;;;;12.20;10.20;;;;;;;18.98;78.26;99297.77;107181;1257;61681;-40
2023/09/01 05:33:07;;;;;;;11.10;9.90;;;;;;;19.01;78.38;99299.86;107010;1257;59128;-40
2023/09/01 05:35:35;;;;;;;12.50;11.00;;;;;;;19.06;78.88;99307.92;107026;1258;74010;-39
2023/09/01 05:38:03;;;;;;;10.70;9.60;;;;;;;19.14;78.53;99306.69;107006;1263;67894;-39
2023/09/01 05:40:30;;;;;;;11.60;10.10;;;;;;;19.25;78.25;99314.36;107050;1264;72650;-40
2023/09/01 05:42:58;;;;;;;11.70;10.60;;;;;;;19.37;77.86;99316.30;107197;1257;61659;-40
2023/09/01 05:45:26;;;;;;;12.10;10.60;;;;;;;19.46;77.73;99318.73;107755;1253;59767;-40
2023/09/01 05:47:56;;;;;;;12.60;11.20;;;;;;;19.48;77.18;99322.39;107769;1249;71606;-40
2023/09/01 05:50:24;;;;;;;15.30;11.40;;;;;;;19.48;77.11;99323.27;107810;1253;66423;-40
2023/09/01 05:52:52;;;;;;;14.10;10.80;;;;;;;19.53;76.96;99325.08;107787;1247;72703;-40
2023/09/01 05:55:19;;;;;;;12.00;10.80;;;;;;;19.59;77.00;99324.40;107727;1247;61141;-40
2023/09/01 05:57:47;;;;;;;12.70;11.30;;;;;;;19.67;76.71;99317.58;107781;1248;60479;-40
2023/09/01 06:00:15;;;;;;;12.30;10.90;;;;;;;19.74;76.73;99315.02;107896;1254;73858;-40
2023/09/01 06:02:43;;;;;;;12.70;11.40;;;;;;;19.80;76.80;99315.23;107830;1253;67895;-40
2023/09/01 06:05:11;;;;;;;12.70;11.30;;;;;;;19.89;76.40;99313.61;107754;1248;72666;-40
2023/09/01 06:07:38;;;;;;;12.20;11.00;;;;;;;20.01;75.85;99320.46;107768;1247;61704;-40
2023/09/01 06:10:07;;;;;;;12.90;11.10;;;;;;;20.08;75.23;99321.34;107786;1248;60085;-41
2023/09/01 06:12:34;;;;;;;16.80;11.80;;;;;;;20.09;75.00;99319.66;107865;1248;72870;-41
2023/09/01 06:15:02;;;;;;;14.90;11.40;;;;;;;20.13;75.00;99325.41;107778;1253;67633;-38
2023/09/01 06:17:29;;;;;;;12.20;10.90;;;;;;;20.18;74.83;99323.66;107784;1251;71414;-40
2023/09/01 06:20:12;;;;;;;12.10;10.90;;;;;;;20.24;74.90;99321.25;107512;1247;395192;-40
2023/09/01 06:23:49;;;;;;;12.40;11.20;;;;;;;20.29;74.83;99320.27;104087;1293;599704;-41
2023/09/01 06:26:19;;;;;;;14.40;12.80;;;;;;;20.28;74.56;99319.48;106605;1268;59350;-41
2023/09/01 06:28:47;;;;;;;13.30;11.90;;;;;;;20.29;74.60;99322.46;106619;1267;59314;-41
2023/09/01 06:31:16;;;;;;;12.20;11.00;;;;;;;20.34;74.65;99317.29;106580;1267;72277;-41
2023/09/01 06:33:44;;;;;;;12.10;10.80;;;;;;;20.44;74.92;99316.20;106604;1267;68102;-41
2023/09/01 06:36:13;;;;;;;13.40;11.60;;;;;;;20.55;74.73;99312.27;106666;1270;72638;-41
2023/09/01 06:38:41;;;;;;;14.70;12.20;;;;;;;20.67;74.27;99313.50;106614;1264;60234;-41
2023/09/01 06:41:09;;;;;;;12.60;11.30;;;;;;;20.74;74.06;99316.39;106736;1264;60027;-41
2023/09/01 06:43:36;;;;;;;12.90;11.60;;;;;;;20.86;73.81;99314.63;106683;1264;72547;-41
2023/09/01 06:46:04;;;;;;;14.50;10.30;;;;;;;21.00;73.67;99316.95;106606;1264;66656;-41
2023/09/01 06:48:32;;;;;;;10.30;9.10;;;;;;;21.15;73.27;99319.04;106611;1270;72670;-41
2023/09/01 06:50:59;;;;;;;10.60;9.60;;;;;;;21.34;72.03;99317.59;106675;1269;60082;-41
2023/09/01 06:53:27;;;;;;;11.10;9.50;;;;;;;21.49;71.06;99314.27;106732;1264;60110;-41
2023/09/01 06:55:55;;;;;;;10.80;9.70;;;;;;;21.67;70.39;99315.20;106736;1264;73514;-41
2023/09/01 06:58:22;;;;;;;10.60;9.50;;;;;;;21.83;69.83;99315.64;106747;1264;68537;-41
2023/09/01 07:00:53;;;;;;;11.00;9.30;;;;;;;21.94;69.22;99311.33;106705;1264;72688;-41
2023/09/01 07:03:20;;;;;;;10.30;8.90;;;;;;;22.09;68.54;99310.45;106702;1264;62131;-41
2023/09/01 07:05:57;;;;;;;9.60;8.70;;;;;;;22.20;67.87;99309.71;106757;1264;60039;-41
2023/09/01 07:08:28;;;;;;;10.10;9.10;;;;;;;22.31;66.96;99310.36;106749;1264;73068;-41
2023/09/01 07:11:05;;;;;;;;;;;;;;;22.39;66.76;99314.92;106731;1264;66362;-41
2023/09/01 07:13:32;;;;;;;9.80;8.80;;;;;;;22.47;66.18;99316.02;106754;1264;72686;-41
2023/09/01 07:16:00;;;;;;;10.30;9.20;;;;;;;22.57;65.80;99314.93;106723;1270;59434;-41
2023/09/01 07:18:29;;;;;;;9.70;8.60;;;;;;;22.67;65.77;99314.33;106740;1264;60063;-41
2023/09/01 07:20:57;;;;;;;9.40;8.40;;;;;;;22.78;64.15;99319.35;106715;1264;71820;-41
2023/09/01 07:23:26;;;;;;;9.10;8.20;;;;;;;22.87;63.51;99321.85;106741;1264;67963;-41
2023/09/01 07:25:54;;;;;;;9.10;8.20;;;;;;;22.92;63.49;99319.22;106798;1264;71720;-41
2023/09/01 07:28:22;;;;;;;9.60;8.60;;;;;;;22.97;63.20;99320.58;106749;1264;59482;-41
2023/09/01 07:30:50;;;;;;;10.40;9.10;;;;;;;22.98;62.69;99321.27;106726;1264;59535;-41
2023/09/01 07:33:17;;;;;;;9.90;9.00;;;;;;;22.98;62.08;99320.02;106752;1267;71795;-41
2023/09/01 07:35:48;;;;;;;10.90;8.70;;;;;;;22.95;62.07;99317.23;106633;1263;67611;-41
2023/09/01 07:38:16;;;;;;;9.00;7.80;;;;;;;22.94;61.89;99313.17;106639;1266;72674;-41
2023/09/01 07:40:45;;;;;;;10.90;8.20;;;;;;;22.99;61.24;99316.41;106667;1263;60078;-41
2023/09/01 07:43:15;;;;;;;10.10;9.10;;;;;;;23.00;60.72;99320.08;106677;1263;60107;-41
2023/09/01 07:45:43;;;;;;;9.60;8.50;;;;;;;23.01;60.51;99317.07;106634;1263;73029;-41
2023/09/01 07:48:11;;;;;;;9.00;8.00;;;;;;;22.99;60.65;99320.38;106694;1264;67574;-41
2023/09/01 07:50:50;;;;;;;9.10;8.10;;;;;;;22.98;60.54;99320.96;106573;1269;72705;-41
2023/09/01 07:53:18;;;;;;;8.50;7.70;;;;;;;23.00;60.19;99323.42;106630;1266;60604;-40
2023/09/01 07:55:46;;;;;;;9.60;8.00;;;;;;;23.01;60.14;99323.45;106646;1263;59640;-41
2023/09/01 07:58:14;;;;;;;10.60;8.20;;;;;;;23.02;59.85;99322.50;106627;1264;73106;-40
2023/09/01 08:00:42;;;;;;;10.60;8.60;;;;;;;23.01;60.28;99320.91;106647;1264;67893;-40
2023/09/01 08:03:13;;;;;;;9.30;7.70;;;;;;;23.02;59.91;99321.36;106636;1263;72731;-40
2023/09/01 08:05:41;;;;;;;9.00;8.10;;;;;;;23.00;59.74;99320.08;106679;1264;60102;-41
2023/09/01 08:08:12;;;;;;;9.10;8.30;;;;;;;23.00;59.50;99323.57;106670;1264;59557;-41
2023/09/01 08:10:40;;;;;;;10.20;9.10;;;;;;;22.98;59.20;99326.41;106690;1264;73516;-40
2023/09/01 08:13:08;;;;;;;9.60;8.70;;;;;;;22.95;58.88;99332.41;106686;1264;66458;-41
2023/09/01 08:15:36;;;;;;;9.70;8.70;;;;;;;22.89;58.76;99334.02;106694;1264;72809;-40
2023/09/01 08:18:05;;;;;;;9.90;8.90;;;;;;;22.87;59.24;99341.11;106679;1266;59657;-40
2023/09/01 08:20:33;;;;;;;10.20;9.20;;;;;;;22.85;59.38;99339.05;106730;1267;59769;-41
2023/09/01 08:23:01;;;;;;;11.30;9.80;;;;;;;22.81;59.73;99343.27;106684;1270;71851;-40
2023/09/01 08:25:29;;;;;;;10.40;9.40;;;;;;;22.77;59.97;99338.44;106711;1264;67576;-41
2023/09/01 08:27:57;;;;;;;13.60;9.90;;;;;;;22.74;59.72;99339.86;106750;1270;72696;-40
2023/09/01 08:30:26;;;;;;;11.10;9.20;;;;;;;22.69;59.47;99340.39;106708;1266;60399;-41
2023/09/01 08:32:54;;;;;;;;;;;;;;;22.65;59.75;99336.08;106739;1264;60047;-40
2023/09/01 08:35:22;;;;;;;11.10;8.80;;;;;;;22.64;60.12;99331.86;107140;1257;73131;-39
2023/09/01 08:37:49;;;;;;;10.80;9.50;;;;;;;22.69;60.51;99334.71;107179;1257;66308;-40
2023/09/01 08:40:17;;;;;;;10.40;9.40;;;;;;;22.79;60.64;99337.04;107118;1257;72702;-40
2023/09/01 08:42:47;;;;;;;11.90;10.20;;;;;;;22.89;60.65;99336.30;107064;1262;59945;-40
2023/09/01 08:45:15;;;;;;;;;;;;;;;22.99;60.09;99341.45;107151;1257;60014;-40
2023/09/01 08:47:47;;;;;;;11.20;9.30;;;;;;;23.04;59.01;99346.03;107153;1256;71810;-41
2023/09/01 08:50:16;;;;;;;10.50;9.50;;;;;;;23.00;58.01;99343.63;107159;1257;66303;-41
2023/09/01 08:52:44;;;;;;;13.30;9.60;;;;;;;22.97;59.00;99352.02;107146;1257;73157;-40
2023/09/01 08:55:13;;;;;;;13.10;10.40;;;;;;;23.00;58.36;99355.56;107180;1257;59350;-41
2023/09/01 08:57:40;;;;;;;11.00;9.80;;;;;;;23.02;58.72;99350.27;107085;1259;60534;-41
2023/09/01 09:00:09;;;;;;;12.10;10.90;;;;;;;23.06;58.46;99352.77;107046;1257;71854;-40
2023/09/01 09:02:40;;;;;;;11.20;10.00;;;;;;;23.08;58.49;99353.27;107139;1257;66437;-41
2023/09/01 09:05:22;;;;;;;10.70;9.70;;;;;;;23.15;57.98;99350.98;107201;1257;72678;-41
2023/09/01 09:08:01;;;;;;;10.20;9.20;;;;;;;23.25;56.82;99352.55;107122;1262;60075;-41
2023/09/01 09:10:32;;;;;;;10.00;9.00;;;;;;;23.38;56.01;99354.33;107219;1257;60090;-41
2023/09/01 09:13:00;;;;;;;10.10;9.10;;;;;;;23.47;55.48;99355.95;107064;1257;71961;-41
2023/09/01 09:15:28;;;;;;;10.80;8.80;;;;;;;23.57;55.87;99355.84;107132;1257;66305;-40
2023/09/01 09:17:55;;;;;;;8.90;8.00;;;;;;;23.73;55.06;99349.41;107038;1257;72678;-41
2023/09/01 09:20:35;;;;;;;9.80;8.80;;;;;;;23.92;54.13;99350.02;107235;1262;60557;-41
2023/09/01 09:23:03;;;;;;;8.90;8.10;;;;;;;24.13;53.39;99349.46;107093;1257;59561;-40
2023/09/01 09:25:33;;;;;;;9.80;8.90;;;;;;;24.32;53.28;99339.41;107117;1262;73514;-41
2023/09/01 09:28:09;;;;;;;10.20;9.20;;;;;;;24.49;52.47;99342.50;107206;1257;67778;-41
2023/09/01 09:30:47;;;;;;;9.80;8.70;;;;;;;24.58;52.45;99333.83;107037;1257;72698;-41
2023/09/01 09:33:15;;;;;;;8.70;7.90;;;;;;;24.65;52.57;99336.83;107064;1264;59660;-41
2023/09/01 09:35:51;;;;;;;9.20;8.30;;;;;;;24.68;51.92;99336.84;107142;1257;60124;-41
2023/09/01 09:38:19;;;;;;;9.50;8.60;;;;;;;24.75;51.61;99338.42;107166;1257;73062;-41
2023/09/01 09:41:00;;;;;;;10.20;9.20;;;;;;;24.78;51.54;99339.31;107166;1257;66447;-41
2023/09/01 09:43:30;;;;;;;9.40;8.00;;;;;;;24.81;51.39;99338.42;107145;1257;71570;-41
2023/09/01 09:46:00;;;;;;;8.50;7.70;;;;;;;24.81;50.33;99342.55;107139;1257;60136;-41
2023/09/01 09:48:28;;;;;;;7.50;6.70;;;;;;;24.81;49.61;99342.61;107151;1257;60037;-40
2023/09/01 09:50:56;;;;;;;7.50;6.80;;;;;;;24.82;49.12;99341.08;107034;1256;71847;-41
2023/09/01 09:53:23;;;;;;;7.00;6.30;;;;;;;24.84;49.27;99343.45;107159;1257;68045;-41
2023/09/01 09:55:51;;;;;;;6.30;5.70;;;;;;;24.86;48.86;99341.31;107100;1262;72671;-41
2023/09/01 09:58:19;;;;;;;6.80;6.10;;;;;;;24.84;48.10;99344.93;107041;1257;60101;-41
2023/09/01 10:00:53;;;;;;;8.40;7.60;;;;;;;24.75;49.01;99347.52;107332;1253;60190;-40
2023/09/01 10:03:25;;;;;;;7.10;6.40;;;;;;;24.64;49.91;99347.59;107454;1254;73089;-41
2023/09/01 10:05:54;;;;;;;8.50;7.60;;;;;;;24.64;50.17;99348.73;107395;1259;67892;-41
2023/09/01 10:08:23;;;;;;;9.20;7.30;;;;;;;24.72;50.54;99351.29;107460;1254;73702;-41
2023/09/01 10:10:51;;;;;;;8.40;7.40;;;;;;;24.89;50.92;99348.42;107470;1256;60166;-41
2023/09/01 10:13:19;;;;;;;8.30;7.20;;;;;;;25.12;50.16;99351.93;107498;1254;59651;-41
2023/09/01 10:15:47;;;;;;;8.10;7.40;;;;;;;25.22;48.48;99352.10;107504;1254;72000;-41
2023/09/01 10:18:15;;;;;;;7.50;6.90;;;;;;;25.21;49.40;99356.80;107476;1254;67659;-41
2023/09/01 10:20:44;;;;;;;7.90;7.10;;;;;;;25.31;49.29;99357.71;107526;1256;72670;-41
2023/09/01 10:23:12;;;;;;;7.50;6.80;;;;;;;25.55;49.41;99356.46;107444;1253;59359;-41
2023/09/01 10:25:39;;;;;;;8.10;6.30;;;;;;;25.73;48.13;99357.04;107466;1254;59875;-41
2023/09/01 10:28:10;;;;;;;6.60;6.00;;;;;;;25.70;47.51;99361.66;107445;1259;70875;-41
2023/09/01 10:30:43;;;;;;;7.90;6.20;;;;;;;25.61;47.43;99364.63;107486;1253;66651;-40
2023/09/01 10:33:15;;;;;;;8.60;6.70;;;;;;;25.52;47.73;99362.67;107533;1253;71416;-41
2023/09/01 10:35:44;;;;;;;7.00;6.40;;;;;;;25.42;48.07;99370.05;107460;1256;60071;-41
2023/09/01 10:38:19;;;;;;;6.50;5.90;;;;;;;25.34;48.02;99370.36;107474;1259;60037;-41
2023/09/01 10:40:55;;;;;;;6.80;6.10;;;;;;;25.31;48.23;99367.86;107467;1253;73940;-41
2023/09/01 10:43:35;;;;;;;6.50;5.90;;;;;;;25.37;48.56;99369.14;107412;1253;66673;-41
2023/09/01 10:46:12;;;;;;;7.00;6.30;;;;;;;25.52;48.10;99367.88;107482;1257;71480;-41
2023/09/01 10:48:59;;;;;;;6.60;6.00;;;;;;;25.71;47.01;99363.20;107489;1257;60566;-41
2023/09/01 10:51:33;;;;;;;7.00;6.20;;;;;;;25.77;46.46;99367.50;107465;1253;61184;-41
2023/09/01 10:54:21;;;;;;;7.10;6.40;;;;;;;25.75;47.26;99370.02;107450;1253;72546;-40
2023/09/01 10:56:57;;;;;;;9.40;6.50;;;;;;;25.87;46.73;99366.93;107458;1258;66441;-41
2023/09/01 10:59:31;;;;;;;7.20;6.50;;;;;;;25.92;46.22;99367.46;107477;1256;71993;-41
2023/09/01 11:02:19;;;;;;;6.70;5.90;;;;;;;25.84;46.94;99365.74;107436;1253;60443;-41
2023/09/01 11:04:47;;;;;;;5.80;5.30;;;;;;;25.88;46.67;99365.59;107393;1253;60409;-41
2023/09/01 11:07:15;;;;;;;5.90;4.70;;;;;;;25.98;46.29;99366.52;107542;1259;73846;-41
2023/09/01 11:09:50;;;;;;;7.00;5.30;;;;;;;26.15;45.40;99373.20;107504;1254;68120;-41
2023/09/01 11:12:18;;;;;;;5.50;4.90;;;;;;;26.24;44.92;99371.64;107475;1253;72776;-41
2023/09/01 11:14:55;;;;;;;5.70;5.10;;;;;;;26.29;44.80;99370.58;107494;1253;60485;-41
2023/09/01 11:17:32;;;;;;;6.60;5.10;;;;;;;26.27;44.77;99368.77;107462;1253;60387;-41
2023/09/01 11:20:00;;;;;;;6.20;5.40;;;;;;;26.20;44.39;99368.94;107473;1253;73894;-40
2023/09/01 11:22:28;;;;;;;6.30;5.30;;;;;;;26.00;44.95;99368.20;107463;1253;67620;-41
2023/09/01 11:24:56;;;;;;;5.60;5.10;;;;;;;25.84;46.15;99369.48;107430;1253;72682;-41
2023/09/01 11:27:23;;;;;;;7.90;5.50;;;;;;;25.83;45.57;99375.00;107432;1254;60450;-41
2023/09/01 11:29:54;;;;;;;5.40;4.90;;;;;;;25.90;45.27;99372.92;107446;1253;60539;-41